sensor_id;sensor_type;location;lat;lon;timestamp;P1;durP1;ratioP1;P2;durP2;ratioP2
43678;SDS011;29279;50.858;4.392;2023-02-15T00:01:46;61.80;;;31.92;;
43678;SDS011;29279;50.858;4.392;2023-02-15T00:04:13;67.35;;;32.83;;
43678;SDS011;29279;50.858;4.392;2023-02-15T00:06:40;68.53;;;31.75;;
43678;SDS011;29279;50.858;4.392;2023-02-15T00:09:05;70.10;;;31.85;;
43678;SDS011;29279;50.858;4.392;2023-02-15T00:11:31;60.38;;;31.27;;
43678;SDS011;29279;50.858;4.392;2023-02-15T00:14:13;67.55;;;31.83;;
43678;SDS011;29279;50.858;4.392;2023-02-15T00:16:47;63.95;;;31.88;;
43678;SDS011;29279;50.858;4.392;2023-02-15T00:19:14;68.38;;;32.67;;
43678;SDS011;29279;50.858;4.392;2023-02-15T00:21:41;69.30;;;32.97;;
43678;SDS011;29279;50.858;4.392;2023-02-15T00:24:08;67.97;;;31.73;;
43678;SDS011;29279;50.858;4.392;2023-02-15T00:26:38;71.38;;;32.33;;
43678;SDS011;29279;50.858;4.392;2023-02-15T00:29:04;67.82;;;30.65;;
43678;SDS011;29279;50.858;4.392;2023-02-15T00:31:31;71.15;;;33.63;;
43678;SDS011;29279;50.858;4.392;2023-02-15T00:34:04;62.05;;;31.33;;
43678;SDS011;29279;50.858;4.392;2023-02-15T00:36:43;64.15;;;30.85;;
43678;SDS011;29279;50.858;4.392;2023-02-15T00:39:09;65.13;;;32.10;;
43678;SDS011;29279;50.858;4.392;2023-02-15T00:41:35;62.20;;;32.33;;
43678;SDS011;29279;50.858;4.392;2023-02-15T00:44:01;59.20;;;29.77;;
43678;SDS011;29279;50.858;4.392;2023-02-15T00:46:27;64.70;;;29.98;;
43678;SDS011;29279;50.858;4.392;2023-02-15T00:48:53;68.07;;;31.02;;
43678;SDS011;29279;50.858;4.392;2023-02-15T00:51:19;69.25;;;30.90;;
43678;SDS011;29279;50.858;4.392;2023-02-15T00:53:48;65.72;;;31.83;;
43678;SDS011;29279;50.858;4.392;2023-02-15T00:56:14;66.88;;;31.92;;
43678;SDS011;29279;50.858;4.392;2023-02-15T00:58:40;67.18;;;32.20;;
43678;SDS011;29279;50.858;4.392;2023-02-15T01:01:07;65.07;;;31.55;;
43678;SDS011;29279;50.858;4.392;2023-02-15T01:03:38;70.45;;;32.63;;
43678;SDS011;29279;50.858;4.392;2023-02-15T01:06:06;69.20;;;33.20;;
43678;SDS011;29279;50.858;4.392;2023-02-15T01:08:32;78.18;;;32.75;;
43678;SDS011;29279;50.858;4.392;2023-02-15T01:11:07;68.22;;;32.85;;
43678;SDS011;29279;50.858;4.392;2023-02-15T01:13:35;66.53;;;31.33;;
43678;SDS011;29279;50.858;4.392;2023-02-15T01:16:01;65.80;;;32.72;;
43678;SDS011;29279;50.858;4.392;2023-02-15T01:18:28;72.95;;;32.80;;
43678;SDS011;29279;50.858;4.392;2023-02-15T01:20:54;66.38;;;30.42;;
43678;SDS011;29279;50.858;4.392;2023-02-15T01:23:20;64.95;;;30.83;;
43678;SDS011;29279;50.858;4.392;2023-02-15T01:25:49;67.65;;;32.10;;
43678;SDS011;29279;50.858;4.392;2023-02-15T01:28:15;69.93;;;33.30;;
43678;SDS011;29279;50.858;4.392;2023-02-15T01:30:40;64.18;;;29.27;;
43678;SDS011;29279;50.858;4.392;2023-02-15T01:33:06;62.75;;;30.80;;
43678;SDS011;29279;50.858;4.392;2023-02-15T01:35:32;59.75;;;29.45;;
43678;SDS011;29279;50.858;4.392;2023-02-15T01:37:58;60.28;;;29.67;;
43678;SDS011;29279;50.858;4.392;2023-02-15T01:40:24;61.85;;;29.65;;
43678;SDS011;29279;50.858;4.392;2023-02-15T01:42:51;54.42;;;28.33;;
43678;SDS011;29279;50.858;4.392;2023-02-15T01:45:25;64.85;;;30.20;;
43678;SDS011;29279;50.858;4.392;2023-02-15T01:47:54;63.45;;;29.20;;
43678;SDS011;29279;50.858;4.392;2023-02-15T01:50:41;56.72;;;28.73;;
43678;SDS011;29279;50.858;4.392;2023-02-15T01:53:14;60.65;;;30.20;;
43678;SDS011;29279;50.858;4.392;2023-02-15T01:55:57;60.47;;;29.95;;
43678;SDS011;29279;50.858;4.392;2023-02-15T01:58:27;57.30;;;29.60;;
43678;SDS011;29279;50.858;4.392;2023-02-15T02:00:57;62.63;;;29.77;;
43678;SDS011;29279;50.858;4.392;2023-02-15T02:03:36;61.17;;;31.45;;
43678;SDS011;29279;50.858;4.392;2023-02-15T02:06:09;61.67;;;30.52;;
43678;SDS011;29279;50.858;4.392;2023-02-15T02:08:35;64.22;;;30.73;;
43678;SDS011;29279;50.858;4.392;2023-02-15T02:11:01;65.03;;;31.40;;
43678;SDS011;29279;50.858;4.392;2023-02-15T02:13:26;62.15;;;31.92;;
43678;SDS011;29279;50.858;4.392;2023-02-15T02:27:29;65.18;;;31.70;;
43678;SDS011;29279;50.858;4.392;2023-02-15T02:42:25;58.55;;;30.23;;
43678;SDS011;29279;50.858;4.392;2023-02-15T02:45:05;68.03;;;33.58;;
43678;SDS011;29279;50.858;4.392;2023-02-15T02:50:25;78.10;;;34.42;;
43678;SDS011;29279;50.858;4.392;2023-02-15T02:52:53;64.18;;;32.80;;
43678;SDS011;29279;50.858;4.392;2023-02-15T03:00:45;66.40;;;34.20;;
43678;SDS011;29279;50.858;4.392;2023-02-15T03:06:10;63.67;;;32.08;;
43678;SDS011;29279;50.858;4.392;2023-02-15T03:08:44;63.97;;;32.97;;
43678;SDS011;29279;50.858;4.392;2023-02-15T03:11:20;60.80;;;32.13;;
43678;SDS011;29279;50.858;4.392;2023-02-15T03:13:46;61.42;;;32.22;;
43678;SDS011;29279;50.858;4.392;2023-02-15T03:16:14;70.53;;;33.33;;
43678;SDS011;29279;50.858;4.392;2023-02-15T03:19:02;66.25;;;34.53;;
43678;SDS011;29279;50.858;4.392;2023-02-15T03:24:14;69.55;;;33.70;;
43678;SDS011;29279;50.858;4.392;2023-02-15T03:26:46;63.67;;;33.15;;
43678;SDS011;29279;50.858;4.392;2023-02-15T03:29:16;60.85;;;31.75;;
43678;SDS011;29279;50.858;4.392;2023-02-15T03:31:45;63.40;;;31.80;;
43678;SDS011;29279;50.858;4.392;2023-02-15T03:34:13;56.88;;;32.47;;
43678;SDS011;29279;50.858;4.392;2023-02-15T03:36:46;64.03;;;32.00;;
43678;SDS011;29279;50.858;4.392;2023-02-15T03:39:40;60.63;;;32.88;;
43678;SDS011;29279;50.858;4.392;2023-02-15T03:45:31;47.40;;;23.45;;
43678;SDS011;29279;50.858;4.392;2023-02-15T03:47:36;71.82;;;32.47;;
43678;SDS011;29279;50.858;4.392;2023-02-15T03:50:17;57.47;;;31.52;;
43678;SDS011;29279;50.858;4.392;2023-02-15T03:53:05;60.03;;;30.40;;
43678;SDS011;29279;50.858;4.392;2023-02-15T03:55:34;63.35;;;30.50;;
43678;SDS011;29279;50.858;4.392;2023-02-15T03:58:00;62.38;;;30.95;;
43678;SDS011;29279;50.858;4.392;2023-02-15T04:01:03;57.15;;;30.10;;
43678;SDS011;29279;50.858;4.392;2023-02-15T04:04:10;58.42;;;31.13;;
43678;SDS011;29279;50.858;4.392;2023-02-15T04:06:43;60.25;;;29.48;;
43678;SDS011;29279;50.858;4.392;2023-02-15T04:09:12;60.10;;;31.25;;
43678;SDS011;29279;50.858;4.392;2023-02-15T04:11:56;59.78;;;28.45;;
43678;SDS011;29279;50.858;4.392;2023-02-15T04:14:22;59.65;;;30.05;;
43678;SDS011;29279;50.858;4.392;2023-02-15T04:17:06;65.35;;;30.25;;
43678;SDS011;29279;50.858;4.392;2023-02-15T04:19:33;66.88;;;30.90;;
43678;SDS011;29279;50.858;4.392;2023-02-15T04:22:17;57.55;;;28.38;;
43678;SDS011;29279;50.858;4.392;2023-02-15T04:25:02;53.47;;;27.83;;
43678;SDS011;29279;50.858;4.392;2023-02-15T04:27:34;57.20;;;29.60;;
43678;SDS011;29279;50.858;4.392;2023-02-15T04:30:00;59.80;;;30.63;;
43678;SDS011;29279;50.858;4.392;2023-02-15T04:32:26;50.13;;;28.10;;
43678;SDS011;29279;50.858;4.392;2023-02-15T04:34:52;60.42;;;28.40;;
43678;SDS011;29279;50.858;4.392;2023-02-15T04:37:18;56.80;;;29.13;;
43678;SDS011;29279;50.858;4.392;2023-02-15T04:39:44;59.55;;;29.80;;
43678;SDS011;29279;50.858;4.392;2023-02-15T04:42:09;59.85;;;29.60;;
43678;SDS011;29279;50.858;4.392;2023-02-15T04:44:35;53.60;;;29.67;;
43678;SDS011;29279;50.858;4.392;2023-02-15T04:47:01;58.95;;;31.25;;
43678;SDS011;29279;50.858;4.392;2023-02-15T04:49:26;60.55;;;31.23;;
43678;SDS011;29279;50.858;4.392;2023-02-15T04:51:52;60.95;;;30.52;;
43678;SDS011;29279;50.858;4.392;2023-02-15T04:54:18;60.95;;;31.60;;
43678;SDS011;29279;50.858;4.392;2023-02-15T04:56:43;65.22;;;32.55;;
43678;SDS011;29279;50.858;4.392;2023-02-15T04:59:10;65.22;;;32.00;;
43678;SDS011;29279;50.858;4.392;2023-02-15T05:01:36;59.05;;;32.05;;
43678;SDS011;29279;50.858;4.392;2023-02-15T05:04:02;65.30;;;33.13;;
43678;SDS011;29279;50.858;4.392;2023-02-15T05:06:28;61.55;;;32.78;;
43678;SDS011;29279;50.858;4.392;2023-02-15T05:08:53;59.58;;;32.55;;
43678;SDS011;29279;50.858;4.392;2023-02-15T05:11:19;61.85;;;33.05;;
43678;SDS011;29279;50.858;4.392;2023-02-15T05:13:45;67.63;;;32.90;;
43678;SDS011;29279;50.858;4.392;2023-02-15T05:16:11;67.15;;;34.22;;
43678;SDS011;29279;50.858;4.392;2023-02-15T05:18:36;59.33;;;33.22;;
43678;SDS011;29279;50.858;4.392;2023-02-15T05:21:02;68.93;;;34.38;;
43678;SDS011;29279;50.858;4.392;2023-02-15T05:23:28;71.85;;;35.55;;
43678;SDS011;29279;50.858;4.392;2023-02-15T05:25:54;61.38;;;33.45;;
43678;SDS011;29279;50.858;4.392;2023-02-15T05:28:38;67.75;;;32.30;;
43678;SDS011;29279;50.858;4.392;2023-02-15T05:31:05;61.30;;;31.73;;
43678;SDS011;29279;50.858;4.392;2023-02-15T05:33:39;64.05;;;33.17;;
43678;SDS011;29279;50.858;4.392;2023-02-15T05:36:06;59.10;;;32.10;;
43678;SDS011;29279;50.858;4.392;2023-02-15T05:38:32;65.43;;;32.75;;
43678;SDS011;29279;50.858;4.392;2023-02-15T05:40:58;66.95;;;33.35;;
43678;SDS011;29279;50.858;4.392;2023-02-15T05:43:24;63.08;;;34.45;;
43678;SDS011;29279;50.858;4.392;2023-02-15T05:45:51;60.28;;;32.28;;
43678;SDS011;29279;50.858;4.392;2023-02-15T05:48:19;60.85;;;32.08;;
43678;SDS011;29279;50.858;4.392;2023-02-15T05:50:45;58.65;;;31.45;;
43678;SDS011;29279;50.858;4.392;2023-02-15T05:53:14;66.35;;;32.03;;
43678;SDS011;29279;50.858;4.392;2023-02-15T05:55:40;64.63;;;32.83;;
43678;SDS011;29279;50.858;4.392;2023-02-15T05:58:06;60.55;;;31.90;;
43678;SDS011;29279;50.858;4.392;2023-02-15T06:00:33;60.95;;;30.80;;
43678;SDS011;29279;50.858;4.392;2023-02-15T06:02:59;61.28;;;31.67;;
43678;SDS011;29279;50.858;4.392;2023-02-15T06:05:24;64.05;;;31.70;;
43678;SDS011;29279;50.858;4.392;2023-02-15T06:07:51;64.40;;;32.55;;
43678;SDS011;29279;50.858;4.392;2023-02-15T06:10:17;63.70;;;32.50;;
43678;SDS011;29279;50.858;4.392;2023-02-15T06:12:43;60.78;;;31.00;;
43678;SDS011;29279;50.858;4.392;2023-02-15T06:15:09;63.83;;;31.58;;
43678;SDS011;29279;50.858;4.392;2023-02-15T06:17:35;56.72;;;30.65;;
43678;SDS011;29279;50.858;4.392;2023-02-15T06:20:01;55.58;;;30.08;;
43678;SDS011;29279;50.858;4.392;2023-02-15T06:22:27;61.10;;;31.65;;
43678;SDS011;29279;50.858;4.392;2023-02-15T06:24:53;55.45;;;30.02;;
43678;SDS011;29279;50.858;4.392;2023-02-15T06:27:18;62.67;;;30.48;;
43678;SDS011;29279;50.858;4.392;2023-02-15T06:29:44;67.05;;;32.67;;
43678;SDS011;29279;50.858;4.392;2023-02-15T06:32:10;58.75;;;29.65;;
43678;SDS011;29279;50.858;4.392;2023-02-15T06:34:35;57.95;;;29.95;;
43678;SDS011;29279;50.858;4.392;2023-02-15T06:37:01;56.00;;;29.70;;
43678;SDS011;29279;50.858;4.392;2023-02-15T06:39:27;53.85;;;29.73;;
43678;SDS011;29279;50.858;4.392;2023-02-15T06:41:52;62.05;;;31.98;;
43678;SDS011;29279;50.858;4.392;2023-02-15T06:44:18;55.95;;;28.90;;
43678;SDS011;29279;50.858;4.392;2023-02-15T06:46:44;66.03;;;31.55;;
43678;SDS011;29279;50.858;4.392;2023-02-15T06:49:09;60.00;;;28.55;;
43678;SDS011;29279;50.858;4.392;2023-02-15T06:51:35;60.00;;;29.20;;
43678;SDS011;29279;50.858;4.392;2023-02-15T06:54:01;60.08;;;30.20;;
43678;SDS011;29279;50.858;4.392;2023-02-15T06:56:26;61.22;;;29.75;;
43678;SDS011;29279;50.858;4.392;2023-02-15T06:58:52;60.38;;;29.80;;
43678;SDS011;29279;50.858;4.392;2023-02-15T07:01:19;60.50;;;28.88;;
43678;SDS011;29279;50.858;4.392;2023-02-15T07:03:44;62.88;;;30.95;;
43678;SDS011;29279;50.858;4.392;2023-02-15T07:06:10;57.17;;;30.30;;
43678;SDS011;29279;50.858;4.392;2023-02-15T07:08:36;60.72;;;31.10;;
43678;SDS011;29279;50.858;4.392;2023-02-15T07:11:03;61.17;;;29.88;;
43678;SDS011;29279;50.858;4.392;2023-02-15T07:13:48;58.17;;;29.60;;
43678;SDS011;29279;50.858;4.392;2023-02-15T07:16:14;63.00;;;28.98;;
43678;SDS011;29279;50.858;4.392;2023-02-15T07:18:40;56.15;;;28.35;;
43678;SDS011;29279;50.858;4.392;2023-02-15T07:21:06;61.90;;;29.42;;
43678;SDS011;29279;50.858;4.392;2023-02-15T07:23:37;57.03;;;27.45;;
43678;SDS011;29279;50.858;4.392;2023-02-15T07:26:04;68.28;;;30.63;;
43678;SDS011;29279;50.858;4.392;2023-02-15T07:28:32;62.55;;;29.15;;
43678;SDS011;29279;50.858;4.392;2023-02-15T07:31:00;57.67;;;29.38;;
43678;SDS011;29279;50.858;4.392;2023-02-15T07:33:27;60.13;;;28.85;;
43678;SDS011;29279;50.858;4.392;2023-02-15T07:35:54;68.88;;;30.92;;
43678;SDS011;29279;50.858;4.392;2023-02-15T07:38:24;67.32;;;30.15;;
43678;SDS011;29279;50.858;4.392;2023-02-15T07:40:51;60.10;;;30.50;;
43678;SDS011;29279;50.858;4.392;2023-02-15T07:43:22;58.28;;;28.55;;
43678;SDS011;29279;50.858;4.392;2023-02-15T07:45:48;64.35;;;30.27;;
43678;SDS011;29279;50.858;4.392;2023-02-15T07:48:13;66.13;;;29.67;;
43678;SDS011;29279;50.858;4.392;2023-02-15T07:50:39;64.68;;;28.60;;
43678;SDS011;29279;50.858;4.392;2023-02-15T07:53:05;62.17;;;28.40;;
43678;SDS011;29279;50.858;4.392;2023-02-15T07:55:30;58.25;;;28.67;;
43678;SDS011;29279;50.858;4.392;2023-02-15T07:57:56;66.05;;;27.90;;
43678;SDS011;29279;50.858;4.392;2023-02-15T08:00:22;56.92;;;27.05;;
43678;SDS011;29279;50.858;4.392;2023-02-15T08:02:55;60.20;;;28.88;;
43678;SDS011;29279;50.858;4.392;2023-02-15T08:05:40;58.05;;;26.65;;
43678;SDS011;29279;50.858;4.392;2023-02-15T08:08:08;62.85;;;28.00;;
43678;SDS011;29279;50.858;4.392;2023-02-15T08:10:57;59.60;;;27.95;;
43678;SDS011;29279;50.858;4.392;2023-02-15T08:13:59;52.35;;;26.33;;
43678;SDS011;29279;50.858;4.392;2023-02-15T08:16:39;62.25;;;26.48;;
43678;SDS011;29279;50.858;4.392;2023-02-15T08:21:37;50.90;;;26.83;;
43678;SDS011;29279;50.858;4.392;2023-02-15T08:24:05;51.38;;;26.98;;
43678;SDS011;29279;50.858;4.392;2023-02-15T08:26:32;53.13;;;26.65;;
43678;SDS011;29279;50.858;4.392;2023-02-15T08:28:59;52.45;;;26.13;;
43678;SDS011;29279;50.858;4.392;2023-02-15T08:31:26;50.33;;;26.42;;
43678;SDS011;29279;50.858;4.392;2023-02-15T08:33:53;50.08;;;26.48;;
43678;SDS011;29279;50.858;4.392;2023-02-15T08:36:20;47.17;;;25.40;;
43678;SDS011;29279;50.858;4.392;2023-02-15T08:38:48;53.10;;;23.92;;
43678;SDS011;29279;50.858;4.392;2023-02-15T08:43:48;46.17;;;25.15;;
43678;SDS011;29279;50.858;4.392;2023-02-15T08:46:16;47.92;;;24.08;;
43678;SDS011;29279;50.858;4.392;2023-02-15T08:48:43;45.92;;;23.70;;
43678;SDS011;29279;50.858;4.392;2023-02-15T08:51:10;43.75;;;23.20;;
43678;SDS011;29279;50.858;4.392;2023-02-15T08:53:39;45.50;;;23.77;;
43678;SDS011;29279;50.858;4.392;2023-02-15T08:56:06;41.80;;;23.05;;
43678;SDS011;29279;50.858;4.392;2023-02-15T08:58:32;49.05;;;24.20;;
43678;SDS011;29279;50.858;4.392;2023-02-15T09:00:58;48.88;;;24.30;;
43678;SDS011;29279;50.858;4.392;2023-02-15T09:03:26;43.10;;;23.88;;
43678;SDS011;29279;50.858;4.392;2023-02-15T09:05:57;52.08;;;23.88;;
43678;SDS011;29279;50.858;4.392;2023-02-15T09:08:24;43.70;;;23.52;;
43678;SDS011;29279;50.858;4.392;2023-02-15T09:10:50;46.42;;;24.13;;
43678;SDS011;29279;50.858;4.392;2023-02-15T09:13:16;45.20;;;24.65;;
43678;SDS011;29279;50.858;4.392;2023-02-15T09:15:41;44.42;;;24.05;;
43678;SDS011;29279;50.858;4.392;2023-02-15T09:18:07;44.83;;;23.55;;
43678;SDS011;29279;50.858;4.392;2023-02-15T09:20:36;50.80;;;23.17;;
43678;SDS011;29279;50.858;4.392;2023-02-15T09:23:02;46.38;;;24.63;;
43678;SDS011;29279;50.858;4.392;2023-02-15T09:25:27;46.60;;;24.77;;
43678;SDS011;29279;50.858;4.392;2023-02-15T09:27:53;48.35;;;24.35;;
43678;SDS011;29279;50.858;4.392;2023-02-15T09:30:19;44.47;;;23.83;;
43678;SDS011;29279;50.858;4.392;2023-02-15T09:32:45;47.58;;;24.00;;
43678;SDS011;29279;50.858;4.392;2023-02-15T09:35:13;49.45;;;26.08;;
43678;SDS011;29279;50.858;4.392;2023-02-15T09:37:39;47.35;;;23.17;;
43678;SDS011;29279;50.858;4.392;2023-02-15T09:40:05;47.08;;;25.20;;
43678;SDS011;29279;50.858;4.392;2023-02-15T09:48:17;48.25;;;25.65;;
43678;SDS011;29279;50.858;4.392;2023-02-15T09:56:45;50.80;;;25.05;;
43678;SDS011;29279;50.858;4.392;2023-02-15T10:21:23;49.90;;;24.95;;
43678;SDS011;29279;50.858;4.392;2023-02-15T10:23:59;49.03;;;25.92;;
43678;SDS011;29279;50.858;4.392;2023-02-15T10:26:48;52.55;;;26.35;;
43678;SDS011;29279;50.858;4.392;2023-02-15T10:37:25;64.93;;;26.20;;
43678;SDS011;29279;50.858;4.392;2023-02-15T10:45:26;51.35;;;27.67;;
43678;SDS011;29279;50.858;4.392;2023-02-15T10:48:06;53.28;;;27.27;;
43678;SDS011;29279;50.858;4.392;2023-02-15T10:51:02;54.03;;;27.05;;
43678;SDS011;29279;50.858;4.392;2023-02-15T10:56:36;58.70;;;27.40;;
43678;SDS011;29279;50.858;4.392;2023-02-15T11:02:35;48.55;;;26.75;;
43678;SDS011;29279;50.858;4.392;2023-02-15T11:07:59;48.53;;;27.38;;
43678;SDS011;29279;50.858;4.392;2023-02-15T11:10:39;48.30;;;26.55;;
43678;SDS011;29279;50.858;4.392;2023-02-15T11:13:17;49.40;;;26.95;;
43678;SDS011;29279;50.858;4.392;2023-02-15T11:23:45;46.45;;;27.25;;
43678;SDS011;29279;50.858;4.392;2023-02-15T11:26:16;50.28;;;28.15;;
43678;SDS011;29279;50.858;4.392;2023-02-15T11:28:51;59.85;;;30.33;;
43678;SDS011;29279;50.858;4.392;2023-02-15T11:31:21;52.72;;;28.80;;
43678;SDS011;29279;50.858;4.392;2023-02-15T11:33:58;50.80;;;27.77;;
43678;SDS011;29279;50.858;4.392;2023-02-15T11:36:31;49.83;;;28.20;;
43678;SDS011;29279;50.858;4.392;2023-02-15T11:39:01;50.33;;;29.40;;
43678;SDS011;29279;50.858;4.392;2023-02-15T11:41:34;55.83;;;28.75;;
43678;SDS011;29279;50.858;4.392;2023-02-15T11:46:33;45.00;;;28.20;;
43678;SDS011;29279;50.858;4.392;2023-02-15T11:48:59;50.92;;;30.80;;
43678;SDS011;29279;50.858;4.392;2023-02-15T11:51:25;49.95;;;29.92;;
43678;SDS011;29279;50.858;4.392;2023-02-15T11:53:53;53.30;;;30.35;;
43678;SDS011;29279;50.858;4.392;2023-02-15T11:56:20;56.05;;;30.63;;
43678;SDS011;29279;50.858;4.392;2023-02-15T11:58:50;58.25;;;32.20;;
43678;SDS011;29279;50.858;4.392;2023-02-15T12:04:04;52.30;;;31.40;;
43678;SDS011;29279;50.858;4.392;2023-02-15T12:06:35;58.20;;;32.03;;
43678;SDS011;29279;50.858;4.392;2023-02-15T12:09:12;56.90;;;31.77;;
43678;SDS011;29279;50.858;4.392;2023-02-15T12:15:29;65.00;;;31.42;;
43678;SDS011;29279;50.858;4.392;2023-02-15T12:17:54;59.17;;;31.73;;
43678;SDS011;29279;50.858;4.392;2023-02-15T12:22:46;54.58;;;31.70;;
43678;SDS011;29279;50.858;4.392;2023-02-15T12:28:24;59.13;;;31.92;;
43678;SDS011;29279;50.858;4.392;2023-02-15T12:30:55;61.33;;;32.88;;
43678;SDS011;29279;50.858;4.392;2023-02-15T12:33:29;62.10;;;32.60;;
43678;SDS011;29279;50.858;4.392;2023-02-15T12:36:21;72.60;;;33.40;;
43678;SDS011;29279;50.858;4.392;2023-02-15T12:39:03;64.82;;;33.85;;
43678;SDS011;29279;50.858;4.392;2023-02-15T12:41:29;64.20;;;33.45;;
43678;SDS011;29279;50.858;4.392;2023-02-15T12:44:06;60.22;;;32.88;;
43678;SDS011;29279;50.858;4.392;2023-02-15T12:46:41;66.57;;;31.48;;
43678;SDS011;29279;50.858;4.392;2023-02-15T12:49:08;61.97;;;32.50;;
43678;SDS011;29279;50.858;4.392;2023-02-15T12:51:45;64.63;;;33.75;;
43678;SDS011;29279;50.858;4.392;2023-02-15T12:54:16;65.88;;;32.28;;
43678;SDS011;29279;50.858;4.392;2023-02-15T12:56:57;53.92;;;33.70;;
43678;SDS011;29279;50.858;4.392;2023-02-15T12:59:23;59.75;;;33.80;;
43678;SDS011;29279;50.858;4.392;2023-02-15T13:01:51;56.47;;;33.25;;
43678;SDS011;29279;50.858;4.392;2023-02-15T13:04:26;57.70;;;31.65;;
43678;SDS011;29279;50.858;4.392;2023-02-15T13:06:57;56.10;;;33.40;;
43678;SDS011;29279;50.858;4.392;2023-02-15T13:11:56;55.63;;;32.45;;
43678;SDS011;29279;50.858;4.392;2023-02-15T13:14:33;51.65;;;30.83;;
43678;SDS011;29279;50.858;4.392;2023-02-15T13:17:00;55.38;;;32.83;;
43678;SDS011;29279;50.858;4.392;2023-02-15T13:22:39;53.85;;;32.58;;
43678;SDS011;29279;50.858;4.392;2023-02-15T13:25:31;57.15;;;31.02;;
43678;SDS011;29279;50.858;4.392;2023-02-15T13:28:03;56.60;;;32.17;;
43678;SDS011;29279;50.858;4.392;2023-02-15T13:30:31;54.80;;;32.90;;
43678;SDS011;29279;50.858;4.392;2023-02-15T13:33:06;60.10;;;34.20;;
43678;SDS011;29279;50.858;4.392;2023-02-15T13:36:05;52.05;;;32.33;;
43678;SDS011;29279;50.858;4.392;2023-02-15T13:41:23;62.38;;;34.53;;
43678;SDS011;29279;50.858;4.392;2023-02-15T13:44:15;62.90;;;34.47;;
43678;SDS011;29279;50.858;4.392;2023-02-15T13:49:32;60.20;;;34.88;;
43678;SDS011;29279;50.858;4.392;2023-02-15T13:52:21;58.08;;;35.08;;
43678;SDS011;29279;50.858;4.392;2023-02-15T13:57:46;59.15;;;34.92;;
43678;SDS011;29279;50.858;4.392;2023-02-15T14:03:10;65.35;;;36.63;;
43678;SDS011;29279;50.858;4.392;2023-02-15T14:08:13;61.17;;;36.47;;
43678;SDS011;29279;50.858;4.392;2023-02-15T14:11:04;60.38;;;34.30;;
43678;SDS011;29279;50.858;4.392;2023-02-15T14:13:58;65.57;;;36.20;;
43678;SDS011;29279;50.858;4.392;2023-02-15T14:16:41;58.17;;;34.22;;
43678;SDS011;29279;50.858;4.392;2023-02-15T14:30:34;69.38;;;39.42;;
43678;SDS011;29279;50.858;4.392;2023-02-15T14:33:05;62.67;;;37.65;;
43678;SDS011;29279;50.858;4.392;2023-02-15T14:35:41;71.07;;;39.63;;
43678;SDS011;29279;50.858;4.392;2023-02-15T14:38:20;72.65;;;38.40;;
43678;SDS011;29279;50.858;4.392;2023-02-15T14:40:56;68.22;;;40.00;;
43678;SDS011;29279;50.858;4.392;2023-02-15T14:49:15;63.13;;;38.08;;
43678;SDS011;29279;50.858;4.392;2023-02-15T14:56:44;74.88;;;40.63;;
43678;SDS011;29279;50.858;4.392;2023-02-15T15:01:36;67.25;;;38.47;;
43678;SDS011;29279;50.858;4.392;2023-02-15T15:04:08;70.85;;;38.40;;
43678;SDS011;29279;50.858;4.392;2023-02-15T15:06:39;68.15;;;38.55;;
43678;SDS011;29279;50.858;4.392;2023-02-15T15:09:12;68.55;;;39.97;;
43678;SDS011;29279;50.858;4.392;2023-02-15T15:11:51;68.75;;;38.72;;
43678;SDS011;29279;50.858;4.392;2023-02-15T15:17:51;65.82;;;37.65;;
43678;SDS011;29279;50.858;4.392;2023-02-15T15:22:49;68.20;;;39.15;;
43678;SDS011;29279;50.858;4.392;2023-02-15T15:28:04;69.43;;;40.90;;
43678;SDS011;29279;50.858;4.392;2023-02-15T15:32:58;72.43;;;41.35;;
43678;SDS011;29279;50.858;4.392;2023-02-15T15:47:31;65.97;;;36.42;;
43678;SDS011;29279;50.858;4.392;2023-02-15T15:50:19;75.75;;;39.45;;
43678;SDS011;29279;50.858;4.392;2023-02-15T15:52:49;73.78;;;38.72;;
43678;SDS011;29279;50.858;4.392;2023-02-15T15:55:18;75.45;;;40.22;;
43678;SDS011;29279;50.858;4.392;2023-02-15T15:57:49;65.00;;;37.10;;
43678;SDS011;29279;50.858;4.392;2023-02-15T16:02:56;70.18;;;38.38;;
43678;SDS011;29279;50.858;4.392;2023-02-15T16:05:21;64.07;;;34.42;;
43678;SDS011;29279;50.858;4.392;2023-02-15T16:07:48;74.97;;;39.90;;
43678;SDS011;29279;50.858;4.392;2023-02-15T16:10:21;73.97;;;39.03;;
43678;SDS011;29279;50.858;4.392;2023-02-15T16:12:49;78.07;;;39.67;;
43678;SDS011;29279;50.858;4.392;2023-02-15T16:15:20;78.47;;;37.97;;
43678;SDS011;29279;50.858;4.392;2023-02-15T16:17:50;74.38;;;38.58;;
43678;SDS011;29279;50.858;4.392;2023-02-15T16:23:04;70.55;;;37.30;;
43678;SDS011;29279;50.858;4.392;2023-02-15T16:26:01;80.07;;;40.05;;
43678;SDS011;29279;50.858;4.392;2023-02-15T16:28:34;79.45;;;38.47;;
43678;SDS011;29279;50.858;4.392;2023-02-15T16:31:07;69.47;;;39.63;;
43678;SDS011;29279;50.858;4.392;2023-02-15T16:33:38;78.30;;;40.13;;
43678;SDS011;29279;50.858;4.392;2023-02-15T16:36:06;70.13;;;37.92;;
43678;SDS011;29279;50.858;4.392;2023-02-15T16:41:07;68.20;;;38.05;;
43678;SDS011;29279;50.858;4.392;2023-02-15T16:43:35;79.07;;;40.58;;
43678;SDS011;29279;50.858;4.392;2023-02-15T16:46:06;79.68;;;39.97;;
43678;SDS011;29279;50.858;4.392;2023-02-15T16:48:39;75.13;;;41.25;;
43678;SDS011;29279;50.858;4.392;2023-02-15T16:51:08;72.10;;;39.70;;
43678;SDS011;29279;50.858;4.392;2023-02-15T16:53:34;71.13;;;39.47;;
43678;SDS011;29279;50.858;4.392;2023-02-15T16:56:02;75.13;;;39.45;;
43678;SDS011;29279;50.858;4.392;2023-02-15T16:58:51;79.60;;;39.55;;
43678;SDS011;29279;50.858;4.392;2023-02-15T17:01:17;78.18;;;39.88;;
43678;SDS011;29279;50.858;4.392;2023-02-15T17:03:48;82.80;;;41.83;;
43678;SDS011;29279;50.858;4.392;2023-02-15T17:06:22;77.78;;;39.58;;
43678;SDS011;29279;50.858;4.392;2023-02-15T17:09:03;70.63;;;38.50;;
43678;SDS011;29279;50.858;4.392;2023-02-15T17:11:36;74.53;;;38.30;;
43678;SDS011;29279;50.858;4.392;2023-02-15T17:19:24;71.57;;;40.25;;
43678;SDS011;29279;50.858;4.392;2023-02-15T17:21:54;77.18;;;40.97;;
43678;SDS011;29279;50.858;4.392;2023-02-15T17:27:00;77.82;;;38.95;;
43678;SDS011;29279;50.858;4.392;2023-02-15T17:29:34;75.35;;;40.05;;
43678;SDS011;29279;50.858;4.392;2023-02-15T17:32:02;82.45;;;40.33;;
43678;SDS011;29279;50.858;4.392;2023-02-15T17:42:54;81.80;;;39.83;;
43678;SDS011;29279;50.858;4.392;2023-02-15T17:45:21;79.15;;;40.38;;
43678;SDS011;29279;50.858;4.392;2023-02-15T17:47:50;76.35;;;40.47;;
43678;SDS011;29279;50.858;4.392;2023-02-15T17:50:20;73.47;;;38.92;;
43678;SDS011;29279;50.858;4.392;2023-02-15T17:52:47;71.43;;;38.58;;
43678;SDS011;29279;50.858;4.392;2023-02-15T17:55:16;67.97;;;39.13;;
43678;SDS011;29279;50.858;4.392;2023-02-15T17:58:03;74.70;;;41.40;;
43678;SDS011;29279;50.858;4.392;2023-02-15T18:00:30;73.80;;;39.95;;
43678;SDS011;29279;50.858;4.392;2023-02-15T18:03:17;76.90;;;40.10;;
43678;SDS011;29279;50.858;4.392;2023-02-15T18:06:01;78.38;;;39.85;;
43678;SDS011;29279;50.858;4.392;2023-02-15T18:08:47;78.05;;;39.83;;
43678;SDS011;29279;50.858;4.392;2023-02-15T18:11:31;71.65;;;39.30;;
43678;SDS011;29279;50.858;4.392;2023-02-15T18:14:03;74.00;;;39.25;;
43678;SDS011;29279;50.858;4.392;2023-02-15T18:16:32;70.78;;;37.88;;
43678;SDS011;29279;50.858;4.392;2023-02-15T18:19:00;70.10;;;39.55;;